createdAt,value
2023-07-18T00:01:03.485Z,97420.80
2023-07-18T00:03:33.410Z,97408.25
2023-07-18T00:06:01.361Z,97407.66
2023-07-18T00:08:29.019Z,97401.23
2023-07-18T00:10:56.728Z,97401.05
2023-07-18T00:13:25.339Z,97410.05
2023-07-18T00:15:53.364Z,97417.87
2023-07-18T00:18:22.153Z,97414.38
2023-07-18T00:20:49.953Z,97414.39
2023-07-18T00:23:17.570Z,97406.59
2023-07-18T00:25:45.346Z,97414.58
2023-07-18T00:28:13.322Z,97414.80
2023-07-18T00:30:41.197Z,97401.13
2023-07-18T00:33:08.687Z,97400.91
2023-07-18T00:35:37.785Z,97403.06
2023-07-18T00:38:05.769Z,97393.49
2023-07-18T00:40:34.461Z,97387.66
2023-07-18T00:43:02.320Z,97390.59
2023-07-18T00:45:29.875Z,97391.56
2023-07-18T00:47:57.526Z,97393.15
2023-07-18T00:50:28.704Z,97401.54
2023-07-18T00:52:56.908Z,97392.75
2023-07-18T00:55:24.745Z,97391.80
2023-07-18T00:57:54.306Z,97401.37
2023-07-18T01:00:23.567Z,97396.70
2023-07-18T01:02:52.002Z,97395.92
2023-07-18T01:05:20.461Z,97395.92
2023-07-18T01:07:48.656Z,97389.66
2023-07-18T01:10:24.956Z,97391.83
2023-07-18T01:12:59.897Z,97383.03
2023-07-18T01:15:31.531Z,97379.31
2023-07-18T01:18:02.351Z,97379.91
2023-07-18T01:20:30.378Z,97380.66
2023-07-18T01:23:01.215Z,97385.94
2023-07-18T01:25:30.831Z,97384.58
2023-07-18T01:28:00.750Z,97383.02
2023-07-18T01:30:30.576Z,97389.86
2023-07-18T01:32:58.344Z,97382.44
2023-07-18T01:35:28.193Z,97378.70
2023-07-18T01:37:59.334Z,97375.02
2023-07-18T01:40:28.207Z,97382.80
2023-07-18T01:42:58.502Z,97383.20
2023-07-18T01:45:31.490Z,97383.58
2023-07-18T01:48:02.938Z,97387.89
2023-07-18T01:50:30.686Z,97392.17
2023-07-18T01:52:59.651Z,97395.08
2023-07-18T01:55:28.677Z,97396.26
2023-07-18T01:57:58.392Z,97398.59
2023-07-18T02:00:26.352Z,97395.66
2023-07-18T02:02:55.404Z,97397.02
2023-07-18T02:05:26.302Z,97406.76
2023-07-18T02:07:54.913Z,97412.43
2023-07-18T02:10:25.580Z,97411.03
2023-07-18T02:12:57.430Z,97412.39
2023-07-18T02:15:25.575Z,97422.53
2023-07-18T02:17:53.491Z,97432.51
2023-07-18T02:20:21.504Z,97430.55
2023-07-18T02:22:49.646Z,97441.88
2023-07-18T02:25:17.892Z,97446.36
2023-07-18T02:27:45.747Z,97443.84
2023-07-18T02:30:15.201Z,97449.69
2023-07-18T02:32:44.320Z,97454.97
2023-07-18T02:35:18.442Z,97459.84
2023-07-18T02:37:46.146Z,97461.41
2023-07-18T02:40:16.428Z,97467.88
2023-07-18T02:42:44.823Z,97464.97
2023-07-18T02:45:14.586Z,97467.50
2023-07-18T02:47:42.374Z,97474.16
2023-07-18T02:50:10.356Z,97471.83
2023-07-18T02:52:39.709Z,97473.20
2023-07-18T02:55:08.183Z,97471.44
2023-07-18T02:57:36.560Z,97473.80
2023-07-18T03:00:08.238Z,97468.16
2023-07-18T03:02:36.060Z,97465.83
2023-07-18T03:05:04.427Z,97462.50
2023-07-18T03:07:32.087Z,97468.16
2023-07-18T03:10:00.282Z,97467.97
2023-07-18T03:12:28.015Z,97467.97
2023-07-18T03:14:55.482Z,97463.48
2023-07-18T03:17:23.925Z,97472.05
2023-07-18T03:19:51.612Z,97476.34
2023-07-18T03:22:20.069Z,97482.62
2023-07-18T03:24:48.279Z,97474.98
2023-07-18T03:27:16.009Z,97479.68
2023-07-18T03:29:44.652Z,97484.96
2023-07-18T03:32:13.303Z,97482.81
2023-07-18T03:34:41.178Z,97484.55
2023-07-18T03:37:09.795Z,97484.55
2023-07-18T03:39:37.903Z,97485.55
2023-07-18T03:42:06.274Z,97483.41
2023-07-18T03:44:34.379Z,97493.74
2023-07-18T03:47:11.192Z,97487.47
2023-07-18T03:49:31.615Z,97482.18
2023-07-18T03:51:59.829Z,97486.06
2023-07-18T03:54:27.662Z,97483.13
2023-07-18T03:56:55.770Z,97485.49
2023-07-18T03:59:23.358Z,97490.14
2023-07-18T04:01:51.114Z,97490.53
2023-07-18T04:04:19.092Z,97486.24
2023-07-18T04:06:46.755Z,97488.57
2023-07-18T04:09:14.751Z,97489.17
2023-07-18T04:11:44.113Z,97491.33
2023-07-18T04:14:11.893Z,97489.20
2023-07-18T04:16:39.809Z,97491.39
2023-07-18T04:19:08.809Z,97497.64
2023-07-18T04:21:36.541Z,97497.09
2023-07-18T04:24:05.515Z,97496.20
2023-07-18T04:26:33.314Z,97496.59
2023-07-18T04:29:01.245Z,97493.31
2023-07-18T04:31:28.835Z,97496.20
2023-07-18T04:33:56.404Z,97499.80
2023-07-18T04:36:25.681Z,97496.16
2023-07-18T04:38:53.470Z,97501.20
2023-07-18T04:41:21.699Z,97507.14
2023-07-18T04:43:49.937Z,97502.20
2023-07-18T04:46:17.503Z,97504.91
2023-07-18T04:48:45.219Z,97500.91
2023-07-18T04:51:13.622Z,97503.82
2023-07-18T04:53:41.302Z,97499.32
2023-07-18T04:56:09.309Z,97504.72
2023-07-18T04:58:37.163Z,97493.33
2023-07-18T05:01:05.074Z,97494.25
2023-07-18T05:03:44.447Z,97501.85
2023-07-18T05:06:03.267Z,97502.84
2023-07-18T05:08:30.890Z,97494.67
2023-07-18T05:11:04.509Z,97502.00
2023-07-18T05:13:32.347Z,97496.75
2023-07-18T05:16:03.168Z,97500.02
2023-07-18T05:18:30.953Z,97512.88
2023-07-18T05:20:59.404Z,97510.30
2023-07-18T05:23:27.116Z,97511.70
2023-07-18T05:25:56.983Z,97511.59
2023-07-18T05:28:26.967Z,97518.89
2023-07-18T05:30:54.550Z,97524.22
2023-07-18T05:33:22.402Z,97517.67
2023-07-18T05:35:50.073Z,97520.67
2023-07-18T05:38:18.182Z,97524.87
2023-07-18T05:40:45.677Z,97531.23
2023-07-18T05:43:13.437Z,97539.17
2023-07-18T05:46:03.377Z,97535.61
2023-07-18T05:48:33.200Z,97533.72
2023-07-18T05:51:01.976Z,97530.86
2023-07-18T05:53:29.457Z,97532.58
2023-07-18T05:55:57.084Z,97529.63
2023-07-18T05:58:24.998Z,97531.00
2023-07-18T06:00:52.685Z,97533.50
2023-07-18T06:03:21.711Z,97533.78
2023-07-18T06:05:55.974Z,97535.43
2023-07-18T06:08:23.780Z,97536.03
2023-07-18T06:10:57.303Z,97532.13
2023-07-18T06:13:25.034Z,97535.75
2023-07-18T06:15:52.948Z,97534.05
2023-07-18T06:18:21.822Z,97541.45
2023-07-18T06:20:50.705Z,97537.81
2023-07-18T06:23:18.437Z,97534.19
2023-07-18T06:25:46.332Z,97548.11
2023-07-18T06:28:13.989Z,97546.04
2023-07-18T06:30:41.750Z,97546.31
2023-07-18T06:33:09.899Z,97543.28
2023-07-18T06:35:38.299Z,97549.41
2023-07-18T06:38:05.981Z,97554.38
2023-07-18T06:40:33.557Z,97554.42
2023-07-18T06:43:01.218Z,97554.47
2023-07-18T06:45:28.891Z,97547.56
2023-07-18T06:47:56.891Z,97552.39
2023-07-18T06:50:25.059Z,97546.13
2023-07-18T06:52:52.943Z,97556.99
2023-07-18T06:55:20.921Z,97562.87
2023-07-18T06:57:49.628Z,97569.46
2023-07-18T07:00:20.269Z,97573.17
2023-07-18T07:02:47.860Z,97575.58
2023-07-18T07:05:15.779Z,97577.91
2023-07-18T07:07:43.929Z,97577.23
2023-07-18T07:10:11.689Z,97586.91
2023-07-18T07:12:39.926Z,97592.45
2023-07-18T07:15:08.374Z,97583.02
2023-07-18T07:17:36.515Z,97582.88
2023-07-18T07:20:14.689Z,97575.27
2023-07-18T07:22:44.032Z,97573.85
2023-07-18T07:25:13.593Z,97568.11
2023-07-18T07:27:43.599Z,97569.48
2023-07-18T07:30:18.823Z,97572.47
2023-07-18T07:32:50.742Z,97578.14
2023-07-18T07:35:20.656Z,97576.86
2023-07-18T07:37:50.078Z,97583.19
2023-07-18T07:40:19.115Z,97575.40
2023-07-18T07:42:47.265Z,97584.29
2023-07-18T07:45:16.780Z,97582.10
2023-07-18T07:47:44.520Z,97594.00
2023-07-18T07:50:13.257Z,97590.83
2023-07-18T07:52:40.816Z,97596.24
2023-07-18T07:55:11.040Z,97595.72
2023-07-18T07:57:39.007Z,97587.05
2023-07-18T08:00:08.125Z,97591.98
2023-07-18T08:02:35.858Z,97588.78
2023-07-18T08:05:04.081Z,97588.02
2023-07-18T08:07:31.880Z,97592.05
2023-07-18T08:09:59.703Z,97588.09
2023-07-18T08:12:27.508Z,97588.73
2023-07-18T08:14:55.124Z,97593.55
2023-07-18T08:17:22.846Z,97587.20
2023-07-18T08:19:50.312Z,97579.77
2023-07-18T08:22:18.519Z,97587.91
2023-07-18T08:24:46.091Z,97584.06
2023-07-18T08:27:13.565Z,97582.67
2023-07-18T08:29:42.572Z,97583.30
2023-07-18T08:32:11.973Z,97581.66
2023-07-18T08:34:39.581Z,97585.33
2023-07-18T08:37:08.994Z,97578.14
2023-07-18T08:39:37.837Z,97578.55
2023-07-18T08:42:07.429Z,97577.02
2023-07-18T08:44:39.089Z,97578.56
2023-07-18T08:47:08.813Z,97576.58
2023-07-18T08:49:40.429Z,97575.78
2023-07-18T08:52:08.512Z,97574.84
2023-07-18T08:54:36.161Z,97577.52
2023-07-18T08:57:05.697Z,97573.16
2023-07-18T08:59:33.864Z,97574.53
2023-07-18T09:02:01.921Z,97566.31
2023-07-18T09:04:31.923Z,97565.45
2023-07-18T09:07:01.457Z,97563.94
2023-07-18T09:09:29.296Z,97560.30
2023-07-18T09:12:05.253Z,97567.63
2023-07-18T09:14:35.242Z,97562.29
2023-07-18T09:17:05.433Z,97561.47
2023-07-18T09:19:49.084Z,97567.52
2023-07-18T09:22:21.662Z,97567.19
2023-07-18T09:24:50.652Z,97566.00
2023-07-18T09:27:20.134Z,97560.14
2023-07-18T09:29:49.832Z,97557.42
2023-07-18T09:32:27.866Z,97556.61
2023-07-18T09:35:00.378Z,97547.30
2023-07-18T09:37:38.499Z,97557.31
2023-07-18T09:40:07.844Z,97553.59
2023-07-18T09:42:36.019Z,97544.45
2023-07-18T09:47:39.369Z,97563.59
2023-07-18T09:50:07.447Z,97565.59
2023-07-18T09:52:39.863Z,97566.80
2023-07-18T09:55:10.702Z,97561.41
2023-07-18T09:57:43.535Z,97559.03
2023-07-18T10:00:12.727Z,97562.59
2023-07-18T10:02:41.079Z,97565.48
2023-07-18T10:05:14.741Z,97562.40
2023-07-18T10:07:44.158Z,97553.31
2023-07-18T10:10:13.127Z,97555.95
2023-07-18T10:13:00.155Z,97559.85
2023-07-18T10:15:29.552Z,97564.72
2023-07-18T10:18:17.703Z,97560.36
2023-07-18T10:21:01.973Z,97556.73
2023-07-18T10:23:42.803Z,97560.48
2023-07-18T10:26:10.811Z,97552.68
2023-07-18T10:28:46.892Z,97551.15
2023-07-18T10:31:37.370Z,97553.78
2023-07-18T10:34:16.631Z,97553.70
2023-07-18T10:37:01.782Z,97555.70
2023-07-18T10:39:46.849Z,97554.14
2023-07-18T10:42:22.355Z,97549.70
2023-07-18T10:45:04.653Z,97553.09
2023-07-18T10:47:36.716Z,97544.28
2023-07-18T10:50:07.212Z,97543.45
2023-07-18T10:52:35.710Z,97548.27
2023-07-18T10:55:06.790Z,97544.74
2023-07-18T10:57:39.552Z,97543.91
2023-07-18T11:00:08.731Z,97542.13
2023-07-18T11:02:42.717Z,97538.43
2023-07-18T11:05:12.916Z,97539.70
2023-07-18T11:07:46.674Z,97539.55
2023-07-18T11:10:15.245Z,97543.81
2023-07-18T11:12:43.865Z,97540.26
2023-07-18T11:15:13.253Z,97540.89
2023-07-18T11:17:42.826Z,97539.27
2023-07-18T11:20:12.567Z,97537.46
2023-07-18T11:22:41.160Z,97530.75
2023-07-18T11:25:11.884Z,97530.58
2023-07-18T11:27:39.913Z,97524.53
2023-07-18T11:30:12.663Z,97528.84
2023-07-18T11:32:45.986Z,97517.73
2023-07-18T11:35:21.033Z,97525.16
2023-07-18T11:37:53.193Z,97514.28
2023-07-18T11:40:26.573Z,97514.45
2023-07-18T11:42:58.662Z,97518.00
2023-07-18T11:45:28.469Z,97516.21
2023-07-18T11:47:59.930Z,97523.70
2023-07-18T11:50:30.926Z,97532.56
2023-07-18T11:52:59.811Z,97523.23
2023-07-18T11:55:28.011Z,97518.40
2023-07-18T11:57:56.423Z,97516.20
2023-07-18T12:00:24.221Z,97524.98
2023-07-18T12:02:52.971Z,97519.95
2023-07-18T12:05:21.616Z,97510.31
2023-07-18T12:07:50.272Z,97505.75
2023-07-18T12:10:19.304Z,97516.41
2023-07-18T12:12:47.388Z,97515.06
2023-07-18T12:15:14.827Z,97526.36
2023-07-18T12:17:42.561Z,97516.39
2023-07-18T12:20:11.892Z,97518.78
2023-07-18T12:22:39.317Z,97512.17
2023-07-18T12:25:08.106Z,97511.78
2023-07-18T12:27:36.004Z,97508.63
2023-07-18T12:30:05.165Z,97506.52
2023-07-18T12:32:32.966Z,97506.73
2023-07-18T12:35:00.480Z,97514.03
2023-07-18T12:37:28.132Z,97506.92
2023-07-18T12:39:55.610Z,97501.65
2023-07-18T12:42:23.534Z,97505.41
2023-07-18T12:44:52.253Z,97499.78
2023-07-18T12:47:19.937Z,97501.17
2023-07-18T12:52:16.641Z,97499.32
2023-07-18T12:54:44.532Z,97494.88
2023-07-18T12:57:12.476Z,97493.48
2023-07-18T12:59:42.425Z,97492.24
2023-07-18T13:02:13.881Z,97495.67
2023-07-18T13:04:42.569Z,97490.39
2023-07-18T13:07:10.560Z,97489.47
2023-07-18T13:09:39.395Z,97484.48
2023-07-18T13:12:08.592Z,97488.55
2023-07-18T13:14:36.598Z,97482.42
2023-07-18T13:17:04.701Z,97485.12
2023-07-18T13:19:32.513Z,97484.41
2023-07-18T13:22:00.406Z,97482.70
2023-07-18T13:24:28.208Z,97480.27
2023-07-18T13:26:56.174Z,97483.84
2023-07-18T13:29:24.283Z,97487.27
2023-07-18T13:31:53.969Z,97481.06
2023-07-18T13:34:23.266Z,97475.33
2023-07-18T13:36:53.525Z,97472.05
2023-07-18T13:39:21.643Z,97474.52
2023-07-18T13:41:49.200Z,97477.03
2023-07-18T13:44:17.057Z,97477.31
2023-07-18T13:46:45.417Z,97472.99
2023-07-18T13:49:12.897Z,97476.41
2023-07-18T13:51:40.802Z,97471.46
2023-07-18T13:54:08.617Z,97478.77
2023-07-18T13:56:36.825Z,97472.47
2023-07-18T13:59:04.609Z,97468.82
2023-07-18T14:01:32.667Z,97465.58
2023-07-18T14:04:01.401Z,97464.02
2023-07-18T14:06:29.459Z,97469.13
2023-07-18T14:08:58.378Z,97470.52
2023-07-18T14:11:28.230Z,97472.72
2023-07-18T14:13:55.715Z,97462.20
2023-07-18T14:16:23.506Z,97461.88
2023-07-18T14:18:52.103Z,97465.44
2023-07-18T14:21:19.971Z,97454.63
2023-07-18T14:23:47.603Z,97456.63
2023-07-18T14:26:15.526Z,97458.93
2023-07-18T14:28:43.375Z,97457.09
2023-07-18T14:31:11.191Z,97458.02
2023-07-18T14:33:45.394Z,97453.69
2023-07-18T14:36:08.208Z,97450.14
2023-07-18T14:38:36.106Z,97450.64
2023-07-18T14:41:04.009Z,97448.80
2023-07-18T14:43:34.024Z,97442.46
2023-07-18T14:46:03.538Z,97449.13
2023-07-18T14:48:31.393Z,97451.56
2023-07-18T14:50:59.505Z,97450.66
2023-07-18T14:53:27.011Z,97451.25
2023-07-18T14:55:54.757Z,97451.73
2023-07-18T14:58:22.428Z,97454.35
2023-07-18T15:00:51.326Z,97454.94
2023-07-18T15:03:19.006Z,97460.38
2023-07-18T15:05:46.885Z,97449.41
2023-07-18T15:08:14.775Z,97454.83
2023-07-18T15:10:42.474Z,97452.35
2023-07-18T15:13:10.080Z,97451.56
2023-07-18T15:15:38.766Z,97453.58
2023-07-18T15:18:07.436Z,97451.44
2023-07-18T15:20:35.291Z,97453.61
2023-07-18T15:23:04.010Z,97456.02
2023-07-18T15:25:32.663Z,97457.72
2023-07-18T15:28:00.394Z,97461.58
2023-07-18T15:30:28.223Z,97455.41
2023-07-18T15:32:55.745Z,97459.41
2023-07-18T15:35:23.284Z,97452.28
2023-07-18T15:37:51.068Z,97455.48
2023-07-18T15:40:18.991Z,97460.27
2023-07-18T15:42:46.591Z,97453.77
2023-07-18T15:45:14.915Z,97461.00
2023-07-18T15:47:45.074Z,97456.53
2023-07-18T15:50:15.966Z,97459.45
2023-07-18T15:52:47.330Z,97457.59
2023-07-18T15:55:15.063Z,97448.02
2023-07-18T15:57:43.179Z,97449.41
2023-07-18T16:00:14.765Z,97445.06
2023-07-18T16:02:43.188Z,97441.03
2023-07-18T16:05:14.242Z,97439.31
2023-07-18T16:07:41.939Z,97437.77
2023-07-18T16:10:10.675Z,97444.84
2023-07-18T16:12:38.408Z,97444.30
2023-07-18T16:15:07.393Z,97438.10
2023-07-18T16:17:34.918Z,97438.10
2023-07-18T16:20:04.800Z,97439.20
2023-07-18T16:22:32.517Z,97439.92
2023-07-18T16:25:00.647Z,97434.77
2023-07-18T16:27:28.154Z,97434.27
2023-07-18T16:29:55.908Z,97431.27
2023-07-18T16:32:26.829Z,97432.61
2023-07-18T16:34:53.103Z,97423.14
2023-07-18T16:37:22.207Z,97435.31
2023-07-18T16:39:56.246Z,97430.33
2023-07-18T16:42:24.675Z,97435.08
2023-07-18T16:44:52.797Z,97433.74
2023-07-18T16:47:20.982Z,97431.07
2023-07-18T16:49:51.108Z,97418.70
2023-07-18T16:52:20.439Z,97415.10
2023-07-18T16:54:48.165Z,97415.32
2023-07-18T16:57:17.088Z,97418.22
2023-07-18T16:59:44.901Z,97424.61
2023-07-18T17:02:12.779Z,97420.24
2023-07-18T17:04:40.547Z,97428.17
2023-07-18T17:07:08.478Z,97423.49
2023-07-18T17:09:35.967Z,97426.34
2023-07-18T17:12:04.907Z,97427.62
2023-07-18T17:14:33.373Z,97427.08
2023-07-18T17:17:01.802Z,97434.30
2023-07-18T17:19:33.094Z,97422.53
2023-07-18T17:22:05.692Z,97428.11
2023-07-18T17:24:33.676Z,97428.44
2023-07-18T17:27:03.104Z,97423.39
2023-07-18T17:29:30.659Z,97426.38
2023-07-18T17:32:01.155Z,97414.75
2023-07-18T17:34:29.269Z,97418.16
2023-07-18T17:37:00.903Z,97410.33
2023-07-18T17:39:34.178Z,97408.39
2023-07-18T17:42:05.153Z,97412.84
2023-07-18T17:44:34.008Z,97412.08
2023-07-18T17:47:01.715Z,97406.85
2023-07-18T17:49:29.772Z,97400.75
2023-07-18T17:51:57.577Z,97409.97
2023-07-18T17:54:25.625Z,97401.88
2023-07-18T17:56:53.533Z,97403.45
2023-07-18T17:59:21.346Z,97401.05
2023-07-18T18:01:49.033Z,97403.73
2023-07-18T18:04:17.771Z,97403.48
2023-07-18T18:06:47.796Z,97398.14
2023-07-18T18:09:17.165Z,97394.37
2023-07-18T18:11:44.674Z,97395.33
2023-07-18T18:14:12.058Z,97398.88
2023-07-18T18:16:40.144Z,97396.67
2023-07-18T18:19:08.617Z,97398.06
2023-07-18T18:21:36.630Z,97397.79
2023-07-18T18:24:07.456Z,97400.30
2023-07-18T18:26:36.500Z,97408.55
2023-07-18T18:29:11.383Z,97415.61
2023-07-18T18:31:39.823Z,97422.41
2023-07-18T18:34:08.974Z,97425.09
2023-07-18T18:36:39.412Z,97431.58
2023-07-18T18:39:13.786Z,97437.78
2023-07-18T18:41:44.698Z,97435.61
2023-07-18T18:44:12.779Z,97434.78
2023-07-18T18:46:45.990Z,97433.92
2023-07-18T18:49:25.966Z,97438.47
2023-07-18T18:51:45.790Z,97442.40
2023-07-18T18:54:13.667Z,97445.33
2023-07-18T18:56:41.378Z,97451.97
2023-07-18T18:59:08.836Z,97449.35
2023-07-18T19:01:38.569Z,97442.20
2023-07-18T19:04:06.276Z,97457.00
2023-07-18T19:06:34.009Z,97457.88
2023-07-18T19:09:03.646Z,97464.23
2023-07-18T19:11:31.183Z,97467.98
2023-07-18T19:14:00.529Z,97473.09
2023-07-18T19:16:38.891Z,97481.94
2023-07-18T19:18:57.885Z,97483.56
2023-07-18T19:21:29.901Z,97479.24
2023-07-18T19:23:58.742Z,97476.14
2023-07-18T19:26:27.855Z,97470.78
2023-07-18T19:28:55.802Z,97475.32
2023-07-18T19:31:23.711Z,97474.38
2023-07-18T19:33:58.537Z,97475.94
2023-07-18T19:36:27.637Z,97473.94
2023-07-18T19:38:55.606Z,97478.96
2023-07-18T19:41:24.754Z,97482.61
2023-07-18T19:44:00.267Z,97488.59
2023-07-18T19:46:30.233Z,97496.91
2023-07-18T19:48:58.405Z,97496.56
2023-07-18T19:51:26.517Z,97500.70
2023-07-18T19:53:54.516Z,97500.54
2023-07-18T19:56:22.551Z,97496.45
2023-07-18T19:58:51.613Z,97497.07
2023-07-18T20:01:22.925Z,97486.72
2023-07-18T20:03:59.207Z,97492.82
2023-07-18T20:06:20.800Z,97496.17
2023-07-18T20:08:48.697Z,97498.95
2023-07-18T20:11:16.291Z,97498.57
2023-07-18T20:13:44.245Z,97499.19
2023-07-18T20:16:12.322Z,97508.01
2023-07-18T20:18:40.586Z,97498.23
2023-07-18T20:21:08.432Z,97493.95
2023-07-18T20:23:36.402Z,97488.09
2023-07-18T20:26:03.977Z,97491.84
2023-07-18T20:28:32.324Z,97488.73
2023-07-18T20:31:00.184Z,97502.62
2023-07-18T20:33:28.000Z,97508.92
2023-07-18T20:35:55.890Z,97504.83
2023-07-18T20:38:23.634Z,97508.14
2023-07-18T20:40:51.585Z,97508.73
2023-07-18T20:43:20.160Z,97510.31
2023-07-18T20:46:02.185Z,97513.61
2023-07-18T20:48:32.966Z,97513.44
2023-07-18T20:51:00.710Z,97510.89
2023-07-18T20:53:30.218Z,97510.90
2023-07-18T20:55:58.188Z,97508.58
2023-07-18T20:58:25.963Z,97517.56
2023-07-18T21:00:53.565Z,97512.69
2023-07-18T21:03:21.475Z,97513.66
2023-07-18T21:05:51.623Z,97523.05
2023-07-18T21:08:19.178Z,97518.77
2023-07-18T21:10:47.018Z,97513.67
2023-07-18T21:13:14.666Z,97514.64
2023-07-18T21:15:42.362Z,97517.00
2023-07-18T21:18:09.959Z,97514.27
2023-07-18T21:20:37.763Z,97519.73
2023-07-18T21:23:05.667Z,97513.26
2023-07-18T21:25:33.228Z,97512.63
2023-07-18T21:28:00.917Z,97515.77
2023-07-18T21:30:28.516Z,97503.45
2023-07-18T21:32:56.313Z,97506.95
2023-07-18T21:35:24.193Z,97502.45
2023-07-18T21:37:51.970Z,97499.51
2023-07-18T21:40:19.800Z,97511.02
2023-07-18T21:42:50.730Z,97506.50
2023-07-18T21:45:18.771Z,97503.16
2023-07-18T21:47:47.215Z,97504.33
2023-07-18T21:50:15.549Z,97501.22
2023-07-18T21:52:44.272Z,97493.58
2023-07-18T21:55:12.104Z,97493.02
2023-07-18T21:57:40.275Z,97487.14
2023-07-18T22:00:09.138Z,97489.27
2023-07-18T22:02:38.863Z,97488.48
2023-07-18T22:05:07.294Z,97486.70
2023-07-18T22:07:34.967Z,97482.59
2023-07-18T22:10:04.665Z,97477.34
2023-07-18T22:12:32.280Z,97479.83
2023-07-18T22:15:00.581Z,97474.70
2023-07-18T22:17:29.946Z,97484.05
2023-07-18T22:19:57.630Z,97483.04
2023-07-18T22:22:25.371Z,97486.34
2023-07-18T22:24:52.918Z,97483.40
2023-07-18T22:27:20.463Z,97481.41
2023-07-18T22:29:48.302Z,97484.30
2023-07-18T22:32:16.165Z,97480.77
2023-07-18T22:34:44.714Z,97479.14
2023-07-18T22:37:12.241Z,97475.40
2023-07-18T22:39:41.953Z,97475.77
2023-07-18T22:42:20.918Z,97470.67
2023-07-18T22:44:49.677Z,97469.12
2023-07-18T22:47:17.891Z,97461.30
2023-07-18T22:49:46.527Z,97470.46
2023-07-18T22:52:19.769Z,97471.80
2023-07-18T22:54:50.163Z,97477.03
2023-07-18T22:57:18.206Z,97474.86
2023-07-18T22:59:47.651Z,97475.62
2023-07-18T23:02:16.010Z,97479.31
2023-07-18T23:04:43.803Z,97472.86
2023-07-18T23:07:11.594Z,97462.73
2023-07-18T23:09:39.610Z,97457.06
2023-07-18T23:12:08.548Z,97455.67
2023-07-18T23:14:37.992Z,97456.79
2023-07-18T23:17:05.778Z,97450.14
2023-07-18T23:19:33.439Z,97458.70
2023-07-18T23:22:01.236Z,97464.36
2023-07-18T23:24:28.897Z,97448.20
2023-07-18T23:26:56.544Z,97441.97
2023-07-18T23:29:24.621Z,97441.58
2023-07-18T23:31:52.065Z,97438.85
2023-07-18T23:34:19.604Z,97434.16
2023-07-18T23:36:47.482Z,97431.02
2023-07-18T23:39:15.040Z,97423.95
2023-07-18T23:41:42.761Z,97423.89
2023-07-18T23:44:10.379Z,97426.63
2023-07-18T23:46:38.379Z,97417.25
2023-07-18T23:49:05.938Z,97412.36
2023-07-18T23:51:33.907Z,97414.05
2023-07-18T23:54:01.520Z,97424.75
2023-07-18T23:56:29.377Z,97416.55
2023-07-18T23:58:57.128Z,97416.13
